Time;durP1;ratioP1;P1;durP2;ratioP2;P2;SDS_P1;SDS_P2;PMS_P1;PMS_P2;Temp;Humidity;BMP_temperature;BMP_pressure;BME280_temperature;BME280_humidity;BME280_pressure;Samples;Min_cycle;Max_cycle;Signal;HPM_P1;HPM_P2
2022/05/01 00:02:00;;;;;;;13.17;5.20;;;;;11.50;101819.00;;;;4907774;29;20826;-67
2022/05/01 00:04:47;;;;;;;8.13;4.93;;;;;11.50;101817.00;;;;4908194;29;20230;-68
2022/05/01 00:07:33;;;;;;;9.73;4.23;;;;;11.50;101814.00;;;;4901687;29;20244;-68
2022/05/01 00:10:21;;;;;;;5.83;3.90;;;;;11.40;101821.00;;;;4907911;29;20744;-67
2022/05/01 00:13:08;;;;;;;9.20;5.40;;;;;11.40;101809.00;;;;4908324;29;20608;-68
2022/05/01 00:15:55;;;;;;;5.97;4.30;;;;;11.30;101818.00;;;;4908311;29;20237;-68
2022/05/01 00:18:41;;;;;;;6.43;4.47;;;;;11.20;101821.00;;;;4902836;29;20237;-67
2022/05/01 00:21:28;;;;;;;7.50;5.10;;;;;11.30;101812.00;;;;4907922;29;20249;-66
2022/05/01 00:24:14;;;;;;;8.63;5.00;;;;;11.30;101812.00;;;;4908237;29;20301;-69
2022/05/01 00:27:02;;;;;;;8.10;5.00;;;;;11.30;101805.00;;;;4911252;29;20241;-67
2022/05/01 00:29:48;;;;;;;6.40;4.73;;;;;11.20;101807.00;;;;4911634;29;20707;-68
2022/05/01 00:38:40;;;;;;;8.57;5.13;;;;;11.20;101803.00;;;;4904900;29;20604;-69
2022/05/01 00:41:26;;;;;;;7.83;5.13;;;;;11.30;101800.00;;;;4901294;29;20607;-68
2022/05/01 00:44:16;;;;;;;6.20;4.40;;;;;11.30;101771.00;;;;4928771;28;20730;-69
2022/05/01 00:47:02;;;;;;;7.70;5.03;;;;;11.30;101809.00;;;;4913968;28;20229;-68
2022/05/01 00:49:48;;;;;;;8.50;5.07;;;;;11.30;101805.00;;;;4911571;29;20372;-68
2022/05/01 00:52:34;;;;;;;8.87;5.07;;;;;11.30;101808.00;;;;4904376;29;20240;-67
2022/05/01 00:55:22;;;;;;;7.53;4.77;;;;;11.20;101800.00;;;;4910638;29;20693;-67
2022/05/01 00:58:08;;;;;;;11.30;4.77;;;;;11.10;101812.00;;;;4911045;29;20241;-67
2022/05/01 01:00:56;;;;;;;6.83;4.13;;;;;11.10;101815.00;;;;4910994;29;20233;-68
2022/05/01 01:03:42;;;;;;;7.07;4.80;;;;;11.10;101805.00;;;;4911129;29;20240;-65
2022/05/01 01:06:30;;;;;;;8.93;4.83;;;;;11.00;101805.00;;;;4903384;29;20936;-67
2022/05/01 01:09:17;;;;;;;9.17;4.87;;;;;11.10;101811.00;;;;4910702;29;20252;-68
2022/05/01 01:15:10;;;;;;;8.53;5.20;;;;;11.00;101804.00;;;;4910494;29;20711;-64
2022/05/01 01:17:58;;;;;;;8.03;4.77;;;;;11.00;101793.00;;;;4910489;29;20229;-67
2022/05/01 01:20:46;;;;;;;7.83;5.10;;;;;11.00;101811.00;;;;4904865;29;20285;-69
2022/05/01 01:23:32;;;;;;;7.83;4.87;;;;;11.10;101803.00;;;;4902968;29;20233;-67
2022/05/01 01:26:18;;;;;;;7.33;5.37;;;;;11.10;101808.00;;;;4910120;29;20236;-67
2022/05/01 01:31:40;;;;;;;8.47;4.83;;;;;11.00;101803.00;;;;4910474;29;20253;-67
2022/05/01 01:32:12;;;;;;;7.47;4.43;;;;;11.00;101804.00;;;;4909773;29;20373;-67
2022/05/01 01:35:00;;;;;;;8.33;4.63;;;;;10.90;101801.00;;;;4910463;29;20741;-68
2022/05/01 01:37:48;;;;;;;10.17;5.23;;;;;10.90;101806.00;;;;4896180;29;20257;-66
2022/05/01 01:40:40;;;;;;;8.37;5.10;;;;;10.80;101798.00;;;;4903067;29;20823;-67
2022/05/01 01:43:28;;;;;;;7.97;4.90;;;;;10.80;101808.00;;;;4908974;29;20269;-69
2022/05/01 01:46:14;;;;;;;10.37;5.60;;;;;10.90;101811.00;;;;4909639;29;20339;-67
2022/05/01 01:49:01;;;;;;;8.20;5.00;;;;;10.80;101808.00;;;;4910051;29;20254;-68
2022/05/01 01:51:47;;;;;;;6.43;4.37;;;;;10.80;101811.00;;;;4909607;29;20675;-68
2022/05/01 01:54:35;;;;;;;6.83;4.27;;;;;10.70;101811.00;;;;4902604;29;20444;-68
2022/05/01 01:57:21;;;;;;;7.57;4.77;;;;;10.80;101812.00;;;;4909634;29;20240;-68
2022/05/01 02:00:08;;;;;;;9.00;4.80;;;;;10.70;101822.00;;;;4909569;29;20734;-64
2022/05/01 02:02:58;;;;;;;8.70;4.80;;;;;10.70;101811.00;;;;4909429;29;20251;-67
2022/05/01 02:05:46;;;;;;;9.03;5.03;;;;;10.70;101817.00;;;;4904230;29;20346;-67
2022/05/01 02:08:34;;;;;;;8.60;4.93;;;;;10.70;101800.00;;;;4902569;29;20234;-68
2022/05/01 02:11:22;;;;;;;8.03;4.80;;;;;10.60;101810.00;;;;4909059;29;20935;-69
2022/05/01 02:14:09;;;;;;;9.23;5.57;;;;;10.60;101806.00;;;;4923987;28;20970;-68
2022/05/01 02:16:57;;;;;;;7.10;4.93;;;;;10.60;101807.00;;;;4902335;29;20269;-68
2022/05/01 02:19:43;;;;;;;6.60;4.33;;;;;10.60;101797.00;;;;4909609;29;20252;-69
2022/05/01 02:22:30;;;;;;;10.10;5.23;;;;;10.50;101803.00;;;;4919218;28;20232;-67
2022/05/01 02:25:16;;;;;;;8.73;5.00;;;;;10.60;101809.00;;;;4928072;28;20384;-65
2022/05/01 02:28:04;;;;;;;7.27;4.73;;;;;10.60;101802.00;;;;4928085;28;20247;-68
2022/05/01 02:30:51;;;;;;;7.33;4.77;;;;;10.50;101800.00;;;;4919641;28;20244;-68
2022/05/01 02:33:38;;;;;;;9.03;5.40;;;;;10.50;101797.00;;;;4921251;28;20248;-68
2022/05/01 02:36:24;;;;;;;8.03;5.20;;;;;10.50;101791.00;;;;4927925;28;20408;-68
2022/05/01 02:39:10;;;;;;;7.83;5.07;;;;;10.50;101798.00;;;;4927903;28;20293;-66
2022/05/01 02:41:57;;;;;;;7.80;4.80;;;;;10.30;101790.00;;;;4928010;28;20248;-69
2022/05/01 02:44:45;;;;;;;8.30;4.60;;;;;10.40;101789.00;;;;4906939;29;20725;-63
2022/05/01 02:47:31;;;;;;;10.67;5.00;;;;;10.30;101791.00;;;;4906128;29;20610;-68
2022/05/01 02:50:17;;;;;;;9.20;5.23;;;;;10.30;101791.00;;;;4906361;29;20245;-68
2022/05/01 02:53:04;;;;;;;8.17;5.33;;;;;10.30;101779.00;;;;4908971;29;20248;-66
2022/05/01 02:55:51;;;;;;;8.63;5.13;;;;;10.30;101788.00;;;;4903569;29;20264;-68
2022/05/01 02:58:37;;;;;;;12.30;5.77;;;;;10.30;101776.00;;;;4901661;29;20522;-68
2022/05/01 03:01:25;;;;;;;9.47;5.53;;;;;10.30;101780.00;;;;4908133;29;20238;-68
2022/05/01 03:04:11;;;;;;;8.17;5.40;;;;;10.30;101777.00;;;;4908590;29;20252;-68
2022/05/01 03:06:57;;;;;;;10.30;5.60;;;;;10.20;101772.00;;;;4908751;29;20871;-64
2022/05/01 03:09:43;;;;;;;10.00;5.53;;;;;10.30;101771.00;;;;4902358;29;20735;-68
2022/05/01 03:12:30;;;;;;;9.63;4.90;;;;;10.30;101781.00;;;;4908089;29;20282;-66
2022/05/01 03:15:17;;;;;;;9.23;5.40;;;;;10.20;101771.00;;;;4908363;29;20311;-68
2022/05/01 03:24:12;;;;;;;9.23;5.60;;;;;10.10;101775.00;;;;4905412;29;20310;-69
2022/05/01 03:26:59;;;;;;;9.00;5.53;;;;;10.10;101772.00;;;;4927642;28;20246;-67
2022/05/01 03:30:15;;;;;;;11.10;5.60;;;;;10.10;101768.00;;;;4897915;29;20237;-67
2022/05/01 03:32:52;;;;;;;10.43;5.60;;;;;10.00;101768.00;;;;4902724;29;20350;-68
2022/05/01 03:35:41;;;;;;;8.43;5.13;;;;;9.90;101766.00;;;;4901387;29;20235;-68
2022/05/01 03:38:27;;;;;;;7.70;5.10;;;;;9.80;101764.00;;;;4908371;29;20721;-67
2022/05/01 03:41:15;;;;;;;7.77;5.13;;;;;9.90;101761.00;;;;4908356;29;20369;-68
2022/05/01 03:44:01;;;;;;;8.37;5.13;;;;;9.90;101759.00;;;;4908476;29;20245;-69
2022/05/01 03:46:47;;;;;;;11.13;5.60;;;;;9.80;101767.00;;;;4902052;29;20269;-68
2022/05/01 03:49:34;;;;;;;8.83;5.50;;;;;9.90;101759.00;;;;4908413;29;20937;-67
2022/05/01 03:52:22;;;;;;;9.93;4.43;;;;;9.90;101766.00;;;;4907433;29;20250;-68
2022/05/01 03:55:09;;;;;;;8.93;5.10;;;;;9.90;101771.00;;;;4908477;29;20650;-67
2022/05/01 03:57:55;;;;;;;11.50;5.27;;;;;9.80;101770.00;;;;4903247;29;20738;-68
2022/05/01 04:00:44;;;;;;;8.53;5.30;;;;;9.80;101763.00;;;;4903019;29;20234;-69
2022/05/01 04:03:30;;;;;;;9.47;5.57;;;;;9.80;101768.00;;;;4911931;29;20458;-69
2022/05/01 04:06:17;;;;;;;10.63;5.33;;;;;9.80;101760.00;;;;4902397;29;20268;-68
2022/05/01 04:09:05;;;;;;;10.73;5.70;;;;;9.70;101772.00;;;;4912079;29;20441;-69
2022/05/01 04:11:53;;;;;;;10.00;5.47;;;;;9.70;101770.00;;;;4905334;29;21041;-68
2022/05/01 04:14:39;;;;;;;9.33;5.50;;;;;9.70;101778.00;;;;4903975;29;20229;-69
2022/05/01 04:17:26;;;;;;;8.83;5.17;;;;;9.70;101763.00;;;;4909598;29;20375;-68
2022/05/01 04:20:15;;;;;;;9.43;5.40;;;;;9.70;101774.00;;;;4906351;29;20241;-67
2022/05/01 04:23:03;;;;;;;8.47;5.00;;;;;9.70;101776.00;;;;4906387;29;20266;-69
2022/05/01 04:25:51;;;;;;;11.00;6.17;;;;;9.70;101768.00;;;;4905385;29;20309;-67
2022/05/01 04:28:38;;;;;;;8.93;5.60;;;;;9.70;101776.00;;;;4911671;29;20719;-69
2022/05/01 04:31:24;;;;;;;9.43;5.70;;;;;9.60;101771.00;;;;4911141;29;20354;-70
2022/05/01 04:34:10;;;;;;;11.13;6.10;;;;;9.60;101773.00;;;;4911785;29;20313;-68
2022/05/01 04:36:58;;;;;;;10.40;5.87;;;;;9.70;101772.00;;;;4906022;29;20235;-69
2022/05/01 04:39:44;;;;;;;10.63;5.47;;;;;9.60;101772.00;;;;4904729;29;20840;-69
2022/05/01 04:42:33;;;;;;;10.67;5.87;;;;;9.70;101771.00;;;;4911251;29;20813;-68
2022/05/01 04:45:19;;;;;;;9.20;5.67;;;;;9.70;101774.00;;;;4911368;29;20234;-68
2022/05/01 04:48:07;;;;;;;8.43;5.23;;;;;9.80;101778.00;;;;4911324;29;20322;-69
2022/05/01 04:50:53;;;;;;;8.30;4.87;;;;;9.80;101775.00;;;;4909087;29;20234;-67
2022/05/01 04:53:40;;;;;;;9.77;5.63;;;;;9.80;101780.00;;;;4911176;29;20673;-66
2022/05/01 04:59:32;;;;;;;9.87;6.00;;;;;9.90;101776.00;;;;4910800;29;20292;-68
2022/05/01 05:02:18;;;;;;;9.47;5.57;;;;;9.90;101778.00;;;;4910185;29;20245;-68
2022/05/01 05:05:06;;;;;;;10.60;5.50;;;;;10.00;101781.00;;;;4911131;29;20238;-68
2022/05/01 05:07:52;;;;;;;9.57;5.63;;;;;10.10;101776.00;;;;4911288;29;20723;-69
2022/05/01 05:10:39;;;;;;;10.63;6.27;;;;;10.20;101779.00;;;;4910482;29;20280;-69
2022/05/01 05:13:27;;;;;;;11.20;6.30;;;;;10.30;101773.00;;;;4910793;29;20668;-68
2022/05/01 05:16:15;;;;;;;12.03;5.90;;;;;10.40;101778.00;;;;4911473;29;20242;-67
2022/05/01 05:19:01;;;;;;;10.60;6.53;;;;;10.40;101781.00;;;;4910674;29;20293;-66
2022/05/01 05:21:48;;;;;;;10.33;5.97;;;;;10.40;101792.00;;;;4915326;28;20254;-68
2022/05/01 05:24:42;;;;;;;12.90;5.90;;;;;10.50;101787.00;;;;4929782;28;20239;-68
2022/05/01 05:27:28;;;;;;;10.47;6.10;;;;;10.60;101791.00;;;;4929272;28;20257;-67
2022/05/01 05:30:15;;;;;;;10.83;5.97;;;;;10.60;101788.00;;;;4929552;28;20366;-68
2022/05/01 05:33:03;;;;;;;10.70;5.53;;;;;10.80;101782.00;;;;4904549;29;20247;-66
2022/05/01 05:35:50;;;;;;;10.03;6.00;;;;;10.80;101782.00;;;;4910389;29;20229;-68
2022/05/01 05:38:37;;;;;;;12.20;6.30;;;;;10.70;101790.00;;;;4910360;29;20805;-68
2022/05/01 05:41:24;;;;;;;13.17;6.07;;;;;10.80;101784.00;;;;4910144;29;20609;-68
2022/05/01 05:44:11;;;;;;;11.83;5.60;;;;;10.80;101783.00;;;;4910498;29;20234;-67
2022/05/01 05:46:57;;;;;;;10.37;5.60;;;;;11.00;101785.00;;;;4909906;29;20312;-66
2022/05/01 05:49:45;;;;;;;11.10;5.30;;;;;10.90;101792.00;;;;4910041;29;20229;-67
2022/05/01 05:52:38;;;;;;;9.97;6.40;;;;;11.00;101788.00;;;;4909136;29;20237;-66
2022/05/01 05:55:24;;;;;;;7.97;5.40;;;;;11.00;101790.00;;;;4909673;29;20281;-65
2022/05/01 05:58:11;;;;;;;9.70;5.07;;;;;11.10;101798.00;;;;4909873;29;20236;-67
2022/05/01 06:00:57;;;;;;;8.57;4.67;;;;;11.00;101801.00;;;;4903450;29;20236;-66
2022/05/01 06:03:43;;;;;;;7.50;4.50;;;;;11.10;101800.00;;;;4910205;29;20241;-68
2022/05/01 06:06:31;;;;;;;8.73;4.60;;;;;11.20;101800.00;;;;4909677;29;20244;-66
2022/05/01 06:09:18;;;;;;;8.80;5.30;;;;;11.30;101797.00;;;;4909466;29;20236;-66
2022/05/01 06:12:05;;;;;;;9.93;5.43;;;;;11.30;101804.00;;;;4904096;29;20245;-67
2022/05/01 06:14:51;;;;;;;7.30;5.30;;;;;11.30;101800.00;;;;4904802;29;20738;-66
2022/05/01 06:17:38;;;;;;;10.30;5.27;;;;;11.50;101805.00;;;;4909629;29;20244;-68
2022/05/01 06:20:26;;;;;;;8.43;4.97;;;;;11.40;101812.00;;;;4906569;29;20871;-68
2022/05/01 06:23:13;;;;;;;8.33;5.23;;;;;11.60;101808.00;;;;4927721;28;20242;-67
2022/05/01 06:26:01;;;;;;;8.67;5.00;;;;;11.50;101800.00;;;;4903545;29;20242;-66
2022/05/01 06:28:48;;;;;;;9.53;5.63;;;;;11.80;101808.00;;;;4900069;29;20297;-65
2022/05/01 06:31:34;;;;;;;7.33;5.20;;;;;11.80;101810.00;;;;4908757;29;20289;-67
2022/05/01 06:34:21;;;;;;;9.63;5.40;;;;;11.80;101819.00;;;;4909593;29;20337;-66
2022/05/01 06:37:07;;;;;;;7.93;5.20;;;;;12.00;101815.00;;;;4904358;29;20237;-66
2022/05/01 06:39:54;;;;;;;8.57;5.50;;;;;11.90;101811.00;;;;4902324;29;20294;-66
2022/05/01 06:42:41;;;;;;;7.50;5.10;;;;;11.80;101808.00;;;;4909167;29;20237;-64
2022/05/01 06:45:27;;;;;;;7.40;4.63;;;;;11.70;101809.00;;;;4909065;29;20262;-68
2022/05/01 06:48:13;;;;;;;8.10;4.93;;;;;11.50;101809.00;;;;4909621;29;20621;-66
2022/05/01 06:51:00;;;;;;;8.10;4.90;;;;;11.60;101812.00;;;;4908620;29;20717;-67
2022/05/01 06:53:46;;;;;;;8.30;5.07;;;;;11.60;101809.00;;;;4905332;29;20237;-68
2022/05/01 06:56:34;;;;;;;7.40;4.60;;;;;11.70;101812.00;;;;4909127;29;20305;-65
2022/05/01 06:59:21;;;;;;;10.37;5.30;;;;;11.70;101802.00;;;;4909122;29;20324;-67
2022/05/01 07:02:07;;;;;;;10.03;5.83;;;;;11.80;101818.00;;;;4903195;29;20325;-66
2022/05/01 07:04:53;;;;;;;8.33;5.07;;;;;12.10;101814.00;;;;4909037;29;20792;-66
2022/05/01 07:07:40;;;;;;;10.13;6.07;;;;;12.10;101820.00;;;;4909061;29;20245;-66
2022/05/01 07:10:26;;;;;;;8.87;5.50;;;;;12.20;101816.00;;;;4908649;29;20237;-62
2022/05/01 07:13:14;;;;;;;9.33;5.20;;;;;12.10;101819.00;;;;4909102;29;20395;-66
2022/05/01 07:16:00;;;;;;;8.23;5.10;;;;;12.00;101816.00;;;;4902556;29;20831;-66
2022/05/01 07:18:46;;;;;;;8.67;5.17;;;;;11.90;101808.00;;;;4904819;29;20233;-67
2022/05/01 07:21:32;;;;;;;10.67;5.77;;;;;12.00;101809.00;;;;4908160;29;20260;-67
2022/05/01 07:24:19;;;;;;;7.87;4.97;;;;;12.20;101820.00;;;;4903697;29;20284;-64
2022/05/01 07:27:05;;;;;;;10.13;5.63;;;;;12.20;101815.00;;;;4902801;29;20710;-66
2022/05/01 07:29:53;;;;;;;8.20;5.23;;;;;12.20;101818.00;;;;4901175;29;20232;-67
2022/05/01 07:32:44;;;;;;;8.47;5.27;;;;;12.20;101828.00;;;;4908514;29;20253;-67
2022/05/01 07:35:30;;;;;;;9.10;5.30;;;;;12.20;101824.00;;;;4911412;29;20236;-65
2022/05/01 07:38:19;;;;;;;8.13;4.97;;;;;12.40;101822.00;;;;4912376;29;20274;-67
2022/05/01 07:41:10;;;;;;;8.93;5.37;;;;;12.40;101833.00;;;;4906966;29;20308;-65
2022/05/01 07:43:56;;;;;;;9.33;5.53;;;;;12.50;101818.00;;;;4907328;29;20237;-67
2022/05/01 07:46:44;;;;;;;8.90;5.83;;;;;12.70;101828.00;;;;4912506;29;20300;-67
2022/05/01 07:49:31;;;;;;;8.30;5.37;;;;;12.70;101823.00;;;;4912154;29;20228;-67
2022/05/01 07:52:17;;;;;;;9.93;5.50;;;;;12.70;101829.00;;;;4912122;29;20245;-68
2022/05/01 07:55:05;;;;;;;7.10;4.83;;;;;12.90;101817.00;;;;4905891;29;20232;-67
2022/05/01 07:57:51;;;;;;;7.73;5.23;;;;;12.90;101824.00;;;;4912075;29;20606;-68
2022/05/01 08:00:37;;;;;;;11.00;5.40;;;;;12.80;101822.00;;;;4911858;29;21200;-67
2022/05/01 08:06:29;;;;;;;8.90;5.50;;;;;12.80;101820.00;;;;4908792;29;20252;-67
2022/05/01 08:09:15;;;;;;;22.30;11.90;;;;;13.10;101822.00;;;;4912224;29;20290;-68
2022/05/01 08:12:02;;;;;;;15.97;8.50;;;;;13.10;101823.00;;;;4905075;29;20236;-69
2022/05/01 08:14:48;;;;;;;10.83;6.90;;;;;13.10;101829.00;;;;4911763;29;20245;-67
2022/05/01 08:17:35;;;;;;;9.03;5.47;;;;;13.00;101823.00;;;;4911781;29;20285;-68
2022/05/01 08:23:27;;;;;;;16.83;8.63;;;;;13.10;101828.00;;;;4910480;29;20719;-67
2022/05/01 08:26:13;;;;;;;12.57;7.47;;;;;13.30;101833.00;;;;4906737;29;20233;-67
2022/05/01 08:29:00;;;;;;;8.90;5.60;;;;;13.20;101839.00;;;;4904684;29;20226;-65
2022/05/01 08:31:47;;;;;;;8.47;5.10;;;;;13.40;101831.00;;;;4907881;29;20236;-68
2022/05/01 08:34:33;;;;;;;11.77;5.20;;;;;13.40;101831.00;;;;4911300;29;20237;-69
2022/05/01 08:37:20;;;;;;;9.30;5.40;;;;;13.40;101824.00;;;;4911508;29;20236;-68
2022/05/01 08:40:08;;;;;;;9.37;5.57;;;;;13.60;101823.00;;;;4905036;29;20233;-68
2022/05/01 08:42:54;;;;;;;9.63;5.10;;;;;13.80;101828.00;;;;4910932;29;20241;-68
2022/05/01 08:45:49;;;;;;;10.23;5.47;;;;;14.00;101817.00;;;;4910432;29;20680;-68
2022/05/01 08:48:40;;;;;;;11.47;6.70;;;;;14.20;101818.00;;;;4910810;29;20238;-66
2022/05/01 08:51:28;;;;;;;10.70;5.73;;;;;14.20;101822.00;;;;4909883;29;20327;-67
2022/05/01 08:54:16;;;;;;;10.00;5.83;;;;;14.00;101818.00;;;;4905914;29;20240;-69
2022/05/01 08:57:03;;;;;;;9.97;5.67;;;;;14.30;101830.00;;;;4904277;29;20711;-69
2022/05/01 08:59:53;;;;;;;14.03;7.90;;;;;14.60;101813.00;;;;4910928;29;20730;-68
2022/05/01 09:02:39;;;;;;;10.30;5.80;;;;;14.60;101818.00;;;;4910567;29;20693;-69
2022/05/01 09:05:25;;;;;;;9.07;5.63;;;;;14.70;101816.00;;;;4910848;29;20728;-68
2022/05/01 09:08:12;;;;;;;15.07;6.87;;;;;15.00;101817.00;;;;4905393;29;20762;-68
2022/05/01 09:12:49;;;;;;;10.20;4.70;;;;;15.00;101817.00;;;;4903030;29;20233;-64
2022/05/01 09:14:06;;;;;;;9.73;5.50;;;;;15.10;101820.00;;;;4903839;29;20321;-70
2022/05/01 09:17:16;;;;;;;9.30;4.70;;;;;15.10;101819.00;;;;4910629;29;20237;-68
2022/05/01 09:20:09;;;;;;;8.17;4.60;;;;;15.00;101821.00;;;;4910555;29;20307;-69
2022/05/01 09:22:57;;;;;;;7.50;5.03;;;;;15.10;101819.00;;;;4905193;29;20241;-68
2022/05/01 09:25:44;;;;;;;10.00;6.03;;;;;15.40;101823.00;;;;4910767;29;20230;-67
2022/05/01 09:28:32;;;;;;;7.33;4.50;;;;;15.40;101826.00;;;;4910650;29;20283;-67
2022/05/01 09:31:18;;;;;;;7.63;5.13;;;;;15.50;101826.00;;;;4910440;29;20633;-67
2022/05/01 09:34:19;;;;;;;8.80;5.53;;;;;15.90;101823.00;;;;4910716;29;20245;-68
2022/05/01 09:37:19;;;;;;;9.10;4.90;;;;;15.90;101811.00;;;;4910962;29;20233;-67
2022/05/01 09:40:07;;;;;;;10.17;5.63;;;;;15.90;101808.00;;;;4906183;29;20233;-67
2022/05/01 09:42:53;;;;;;;10.53;4.57;;;;;16.00;101817.00;;;;4910404;29;20237;-67
2022/05/01 09:45:41;;;;;;;7.03;4.83;;;;;16.20;101822.00;;;;4910871;29;20234;-67
2022/05/01 09:48:27;;;;;;;6.83;4.67;;;;;16.00;101816.00;;;;4910816;29;20631;-68
2022/05/01 09:51:16;;;;;;;18.47;10.43;;;;;15.90;101814.00;;;;4910060;29;20241;-66
2022/05/01 09:54:03;;;;;;;8.47;5.13;;;;;16.10;101823.00;;;;4902769;29;20247;-67
2022/05/01 09:56:51;;;;;;;9.13;4.73;;;;;16.10;101822.00;;;;4909874;29;20267;-66
2022/05/01 09:59:46;;;;;;;7.57;4.10;;;;;15.60;101815.00;;;;4909648;29;20373;-64
2022/05/01 10:02:34;;;;;;;10.37;5.70;;;;;15.80;101815.00;;;;4909510;29;20362;-66
2022/05/01 10:05:21;;;;;;;9.67;5.07;;;;;15.30;101813.00;;;;4904627;29;20243;-64
2022/05/01 10:08:08;;;;;;;11.10;5.63;;;;;15.00;101812.00;;;;4903120;29;20626;-67
2022/05/01 10:10:57;;;;;;;9.30;5.47;;;;;15.10;101808.00;;;;4909350;29;20230;-68
2022/05/01 10:13:45;;;;;;;8.73;5.30;;;;;15.00;101808.00;;;;4909645;29;20242;-65
2022/05/01 10:16:31;;;;;;;7.47;4.90;;;;;14.90;101814.00;;;;4909958;29;20724;-68
2022/05/01 10:19:20;;;;;;;6.87;4.77;;;;;14.60;101808.00;;;;4909602;29;20771;-68
2022/05/01 10:22:06;;;;;;;11.90;4.90;;;;;14.50;101812.00;;;;4916211;28;20725;-68
2022/05/01 10:24:53;;;;;;;11.57;6.80;;;;;14.50;101810.00;;;;4928900;28;20245;-70
2022/05/01 10:27:48;;;;;;;13.40;5.83;;;;;14.40;101812.00;;;;4928701;28;20332;-67
2022/05/01 10:34:09;;;;;;;14.17;6.30;;;;;14.30;101815.00;;;;4923901;28;20329;-65
2022/05/01 10:37:25;;;;;;;10.00;5.23;;;;;14.20;101790.00;;;;4903314;29;20238;-68
2022/05/01 10:40:12;;;;;;;5.70;4.40;;;;;14.10;101802.00;;;;4902778;29;20333;-65
2022/05/01 10:43:02;;;;;;;5.80;4.27;;;;;14.10;101802.00;;;;4908811;29;20242;-67
2022/05/01 10:45:48;;;;;;;6.60;4.20;;;;;14.40;101797.00;;;;4909474;29;20238;-67
2022/05/01 10:48:37;;;;;;;5.50;3.80;;;;;14.10;101806.00;;;;4909244;29;20234;-67
2022/05/01 10:51:43;;;;;;;9.27;5.50;;;;;14.10;101800.00;;;;4907332;29;20239;-67
2022/05/01 10:54:38;;;;;;;9.00;5.33;;;;;14.30;101796.00;;;;4904638;29;20245;-66
2022/05/01 10:57:25;;;;;;;14.43;6.43;;;;;14.20;101797.00;;;;4904151;29;20260;-66
2022/05/01 11:00:15;;;;;;;10.43;5.17;;;;;14.50;101788.00;;;;4909320;29;20233;-67
2022/05/01 11:03:25;;;;;;;7.43;4.83;;;;;14.50;101787.00;;;;4908553;29;20346;-68
2022/05/01 11:06:13;;;;;;;6.60;4.20;;;;;14.40;101791.00;;;;4904456;29;20610;-63
2022/05/01 11:09:01;;;;;;;11.17;5.87;;;;;14.50;101788.00;;;;4908694;29;20237;-67
2022/05/01 11:11:53;;;;;;;6.03;4.50;;;;;14.40;101784.00;;;;4907977;29;20237;-67
2022/05/01 11:14:40;;;;;;;8.90;5.10;;;;;14.60;101781.00;;;;4908964;29;20236;-67
2022/05/01 11:17:54;;;;;;;6.27;4.30;;;;;14.60;101778.00;;;;4906091;29;20241;-66
2022/05/01 11:20:41;;;;;;;8.90;5.27;;;;;14.90;101769.00;;;;4905693;29;20229;-66
2022/05/01 11:23:31;;;;;;;6.47;4.43;;;;;15.00;101772.00;;;;4927463;28;20241;-67
2022/05/01 11:26:18;;;;;;;7.60;4.40;;;;;15.30;101759.00;;;;4905749;29;20662;-67
2022/05/01 11:29:13;;;;;;;5.33;4.00;;;;;15.80;101765.00;;;;4908513;29;20699;-67
2022/05/01 11:32:17;;;;;;;6.53;4.30;;;;;15.70;101764.00;;;;4908356;29;20245;-67
2022/05/01 11:35:04;;;;;;;8.27;4.77;;;;;15.70;101756.00;;;;4908531;29;20238;-67
2022/05/01 11:38:08;;;;;;;6.50;4.63;;;;;15.70;101756.00;;;;4908752;29;20237;-67
2022/05/01 11:40:56;;;;;;;9.17;4.77;;;;;16.00;101755.00;;;;4908273;29;20263;-67
2022/05/01 11:43:43;;;;;;;7.20;4.50;;;;;16.00;101758.00;;;;4908637;29;20660;-67
2022/05/01 11:46:31;;;;;;;5.80;4.13;;;;;16.00;101759.00;;;;4908521;29;20237;-68
2022/05/01 11:49:17;;;;;;;6.63;4.40;;;;;16.20;101753.00;;;;4902115;29;20281;-66
2022/05/01 11:52:05;;;;;;;7.53;4.67;;;;;16.30;101751.00;;;;4907870;29;20732;-65
2022/05/01 11:54:54;;;;;;;7.77;4.50;;;;;16.60;101747.00;;;;4908433;29;20243;-66
2022/05/01 12:03:50;;;;;;;7.17;5.10;;;;;16.50;101748.00;;;;4908045;29;20245;-67
2022/05/01 12:06:42;;;;;;;5.53;4.17;;;;;16.80;101737.00;;;;4908674;29;20236;-68
2022/05/01 12:09:29;;;;;;;6.07;4.00;;;;;16.60;101743.00;;;;4902915;29;20237;-67
2022/05/01 12:12:18;;;;;;;8.13;4.20;;;;;16.70;101742.00;;;;4901587;29;20287;-66
2022/05/01 12:15:06;;;;;;;5.53;4.60;;;;;17.00;101734.00;;;;4908753;29;20381;-66
2022/05/01 12:17:52;;;;;;;7.87;4.60;;;;;17.40;101728.00;;;;4908575;29;20253;-67
2022/05/01 12:20:40;;;;;;;9.13;4.80;;;;;17.30;101718.00;;;;4905711;29;20237;-68
2022/05/01 12:23:26;;;;;;;7.10;4.53;;;;;17.80;101719.00;;;;4908363;29;20241;-68
2022/05/01 12:26:13;;;;;;;6.07;4.30;;;;;17.90;101717.00;;;;4904709;29;20230;-67
2022/05/01 12:29:00;;;;;;;9.13;4.60;;;;;18.30;101709.00;;;;4911437;29;20240;-69
2022/05/01 12:32:17;;;;;;;5.30;4.20;;;;;18.50;101716.00;;;;4907431;29;20237;-67
2022/05/01 12:35:05;;;;;;;6.07;4.20;;;;;18.40;101708.00;;;;4852114;29;20792;-68
2022/05/01 12:37:53;;;;;;;6.47;4.20;;;;;18.20;101716.00;;;;4911251;29;20257;-68
2022/05/01 12:43:52;;;;;;;6.37;3.90;;;;;18.20;101716.00;;;;4908076;29;20716;-68
2022/05/01 12:46:39;;;;;;;5.90;4.43;;;;;18.50;101710.00;;;;4907372;29;20292;-67
2022/05/01 12:49:26;;;;;;;8.47;4.97;;;;;18.50;101716.00;;;;4905484;29;20922;-66
2022/05/01 12:52:30;;;;;;;8.10;4.83;;;;;18.50;101715.00;;;;4903725;29;20277;-67
2022/05/01 12:55:19;;;;;;;6.13;4.20;;;;;18.10;101698.00;;;;4902786;29;20245;-69
2022/05/01 12:58:07;;;;;;;7.30;4.70;;;;;17.70;101713.00;;;;4910954;29;20323;-68
2022/05/01 13:00:53;;;;;;;6.90;4.20;;;;;17.40;101716.00;;;;4910797;29;20233;-65
2022/05/01 13:03:40;;;;;;;6.03;4.60;;;;;17.10;101720.00;;;;4911216;29;20249;-67
2022/05/01 13:06:26;;;;;;;6.00;4.57;;;;;16.80;101712.00;;;;4905031;29;20621;-67
2022/05/01 13:09:13;;;;;;;6.93;4.50;;;;;17.00;101712.00;;;;4903317;29;20634;-67
2022/05/01 13:12:03;;;;;;;7.50;4.23;;;;;16.80;101711.00;;;;4910448;29;20237;-65
2022/05/01 13:14:57;;;;;;;8.47;4.60;;;;;16.60;101704.00;;;;4910296;29;20241;-68
2022/05/01 13:18:02;;;;;;;6.20;4.60;;;;;16.60;101699.00;;;;4910884;29;20237;-67
2022/05/01 13:20:48;;;;;;;7.37;4.50;;;;;16.80;101695.00;;;;4904721;29;20753;-67
2022/05/01 13:23:34;;;;;;;7.90;5.17;;;;;16.40;101697.00;;;;4929579;28;20614;-67
2022/05/01 13:26:20;;;;;;;7.73;4.57;;;;;16.30;101690.00;;;;4906988;29;20298;-68
2022/05/01 13:29:10;;;;;;;6.87;4.10;;;;;16.60;101686.00;;;;4910814;28;20319;-67
2022/05/01 13:32:05;;;;;;;7.27;4.33;;;;;17.00;101683.00;;;;4928717;28;20245;-66
2022/05/01 13:34:51;;;;;;;5.63;4.23;;;;;16.80;101679.00;;;;4929284;28;20839;-67
2022/05/01 13:37:38;;;;;;;6.27;4.13;;;;;16.90;101682.00;;;;4929742;28;20240;-66
2022/05/01 13:46:44;;;;;;;4.83;3.97;;;;;17.00;101685.00;;;;4925405;28;20232;-66
2022/05/01 13:49:32;;;;;;;6.10;3.87;;;;;16.90;101675.00;;;;4923241;28;20840;-66
2022/05/01 13:52:19;;;;;;;8.57;5.10;;;;;17.10;101683.00;;;;4921396;28;20237;-67
2022/05/01 13:55:06;;;;;;;7.27;4.30;;;;;16.80;101663.00;;;;4928641;28;20648;-66
2022/05/01 13:57:52;;;;;;;7.93;4.57;;;;;16.80;101682.00;;;;4928676;28;20236;-65
2022/05/01 14:00:38;;;;;;;9.50;5.70;;;;;16.80;101670.00;;;;4928987;28;20599;-64
2022/05/01 14:03:25;;;;;;;6.67;4.20;;;;;16.40;101671.00;;;;4903033;29;20268;-67
2022/05/01 14:06:11;;;;;;;8.33;5.50;;;;;16.40;101662.00;;;;4909765;29;20244;-66
2022/05/01 14:08:58;;;;;;;10.43;5.30;;;;;16.30;101668.00;;;;4909966;29;20240;-67
2022/05/01 14:11:45;;;;;;;9.37;5.23;;;;;16.40;101666.00;;;;4909927;29;20322;-66
2022/05/01 14:14:31;;;;;;;13.17;7.07;;;;;16.40;101668.00;;;;4904584;29;20225;-66
2022/05/01 14:17:17;;;;;;;6.13;4.47;;;;;16.30;101664.00;;;;4902511;29;20244;-67
2022/05/01 14:20:08;;;;;;;7.33;4.40;;;;;16.10;101664.00;;;;4908558;29;20239;-65
2022/05/01 14:22:56;;;;;;;5.60;4.07;;;;;16.10;101651.00;;;;4922734;28;20246;-67
2022/05/01 14:25:43;;;;;;;9.50;6.27;;;;;16.20;101653.00;;;;4928838;28;20236;-66
2022/05/01 14:28:29;;;;;;;9.37;5.27;;;;;16.20;101648.00;;;;4909265;29;20369;-66
2022/05/01 14:31:21;;;;;;;8.20;4.57;;;;;16.10;101662.00;;;;4909222;29;20230;-66
2022/05/01 14:34:10;;;;;;;6.07;4.30;;;;;16.00;101645.00;;;;4909329;29;20374;-65